KBZN

Bozeman Yellowstone International Airport

Bozeman, Montana, USA
METAR KBZN 191456Z 00000KT 4SM HZ CLR 13/09 A3029 RMK AO2 SLP237 T01280089 58002
Observed Flight Rules
Aug-19 @ 14:56 UTC (42 minutes ago) Marginal Visual Flight Rules
Visibility Clouds Conditions
4 miles
  • Clear skies
  • Haze
Temperatures Readings
Current 13°C / 55°F
Dewpoint 9°C / 48°F
Humidity 77%
Altimeter 30.29" Hg
Pressure 1023.7 hPa
Elevation 1361
METAR KBZN 191456Z 00000KT 4SM HZ CLR 13/09 A3029 RMK AO2 SLP237 T01280089 58002
Observed Flight Rules
Aug-19 @ 14:56 UTC
(42 minutes ago)
MVFR
Clouds
  • Clear skies
Conditions
  • Haze
Temperature Dewpoint
13°C / 55°F 9°C / 48°F
Humidity Altimeter Pressure
77% 30.29" Hg 1023.7 hPa